Time;durP1;ratioP1;P1;durP2;ratioP2;P2;SDS_P1;SDS_P2;PMS_P1;PMS_P2;Temp;Humidity;BMP_temperature;BMP_pressure;BME280_temperature;BME280_humidity;BME280_pressure;Samples;Min_cycle;Max_cycle;Signal;HPM_P1;HPM_P2
2022/10/18 00:00:36;;;;;;;;;;;;;;;10.49;71.79;102610.84;5007423;28;19921;-84
2022/10/18 00:03:02;;;;;;;;;;;;;;;10.43;71.91;102616.69;5025177;28;20377;-86
2022/10/18 00:05:28;;;;;;;;;;;;;;;10.43;72.16;102609.47;5013646;28;20322;-85
2022/10/18 00:07:54;;;;;;;;;;;;;;;10.44;72.06;102600.44;5027942;28;20400;-85
2022/10/18 00:10:19;;;;;;;;;;;;;;;10.42;72.14;102604.19;5029237;28;19918;-85
2022/10/18 00:12:44;;;;;;;;;;;;;;;10.38;72.32;102608.09;5027783;28;19928;-85
2022/10/18 00:15:10;;;;;;;;;;;;;;;10.41;72.27;102608.72;5002614;28;19972;-85
2022/10/18 00:17:36;;;;;;;;;;;;;;;10.32;72.52;102604.88;5003533;28;19921;-85
2022/10/18 00:20:01;;;;;;;;;;;;;;;10.34;72.53;102607.44;5003722;28;20007;-85
2022/10/18 00:22:28;;;;;;;;;;;;;;;10.37;72.44;102600.97;5026331;28;19944;-86
2022/10/18 00:24:54;;;;;;;;;;;;;;;10.31;72.79;102600.47;5035426;28;20348;-86
2022/10/18 00:27:21;;;;;;;;;;;;;;;10.33;72.72;102601.22;5037556;28;19927;-84
2022/10/18 00:29:47;;;;;;;;;;;;;;;10.26;72.92;102594.53;5042457;28;19920;-85
2022/10/18 00:32:15;;;;;;;;;;;;;;;10.31;72.78;102596.91;5044151;28;19992;-86
2022/10/18 00:34:41;;;;;;;;;;;;;;;10.31;72.86;102596.91;5035357;28;20325;-85
2022/10/18 00:37:06;;;;;;;;;;;;;;;10.25;72.93;102592.78;5007842;28;19936;-86
2022/10/18 00:39:32;;;;;;;;;;;;;;;10.25;72.92;102590.09;5038891;28;19956;-85
2022/10/18 00:41:57;;;;;;;;;;;;;;;10.21;73.07;102585.94;5023613;28;20004;-85
2022/10/18 00:44:23;;;;;;;;;;;;;;;10.16;73.00;102577.38;5051145;28;19984;-85
2022/10/18 00:46:49;;;;;;;;;;;;;;;10.21;72.93;102579.69;5036627;28;19945;-85
2022/10/18 00:49:16;;;;;;;;;;;;;;;10.13;73.01;102578.41;5031081;28;20020;-86
2022/10/18 00:51:45;;;;;;;;;;;;;;;10.18;73.00;102575.41;5021568;28;20024;-87
2022/10/18 00:54:11;;;;;;;;;;;;;;;10.19;72.86;102577.13;5017819;28;19953;-86
2022/10/18 00:56:38;;;;;;;;;;;;;;;10.20;72.82;102575.31;5003308;28;20297;-87
2022/10/18 00:59:05;;;;;;;;;;;;;;;10.15;72.98;102581.00;5038540;28;19925;-86
2022/10/18 01:01:33;;;;;;;;;;;;;;;10.09;73.29;102565.31;5029913;28;19925;-86
2022/10/18 01:03:58;;;;;;;;;;;;;;;10.12;73.37;102565.13;5026156;28;20078;-87
2022/10/18 01:06:24;;;;;;;;;;;;;;;10.10;73.48;102557.16;5033099;28;20540;-86
2022/10/18 01:08:59;;;;;;;;;;;;;;;10.15;73.42;102563.03;5032311;28;20004;-85
2022/10/18 01:11:34;;;;;;;;;;;;;;;10.10;73.73;102564.38;5004148;28;19986;-85
2022/10/18 01:14:18;;;;;;;;;;;;;;;10.10;73.77;102567.91;5035456;28;19987;-85
2022/10/18 01:17:02;;;;;;;;;;;;;;;10.08;74.26;102558.22;5031223;28;20468;-87
2022/10/18 01:19:43;;;;;;;;;;;;;;;10.10;74.16;102561.69;5017856;28;20067;-85
2022/10/18 01:22:22;;;;;;;;;;;;;;;10.12;74.23;102551.69;5028618;28;19921;-86
2022/10/18 01:24:58;;;;;;;;;;;;;;;10.14;74.09;102557.81;5036241;28;19925;-86
2022/10/18 01:27:36;;;;;;;;;;;;;;;10.16;74.09;102561.25;5037981;28;20354;-86
2022/10/18 01:30:20;;;;;;;;;;;;;;;10.12;74.35;102549.00;5025296;28;19965;-84
2022/10/18 01:32:51;;;;;;;;;;;;;;;10.09;74.56;102552.75;5034350;28;19925;-85
2022/10/18 01:35:18;;;;;;;;;;;;;;;10.05;74.75;102553.09;5035341;28;20394;-86
2022/10/18 01:37:44;;;;;;;;;;;;;;;10.15;74.46;102554.97;5034735;28;19917;-86
2022/10/18 01:40:10;;;;;;;;;;;;;;;10.10;74.71;102550.94;5011340;28;19941;-86
2022/10/18 01:42:35;;;;;;;;;;;;;;;10.14;74.50;102555.13;5023130;28;19969;-85
2022/10/18 01:45:00;;;;;;;;;;;;;;;10.03;74.92;102555.03;5044954;28;20004;-85
2022/10/18 01:47:26;;;;;;;;;;;;;;;10.10;74.94;102553.63;5032672;28;19921;-87
2022/10/18 01:50:01;;;;;;;;;;;;;;;10.02;75.34;102553.28;5032669;28;19975;-86
2022/10/18 01:52:27;;;;;;;;;;;;;;;10.12;75.08;102557.06;5032333;28;19924;-86
2022/10/18 01:54:54;;;;;;;;;;;;;;;10.15;75.24;102554.13;5036164;28;20385;-88
2022/10/18 01:57:37;;;;;;;;;;;;;;;10.11;75.29;102558.88;5032996;28;20375;-87
2022/10/18 02:00:37;;;;;;;;;;;;;;;10.20;74.94;102556.47;5030704;28;19921;-87
2022/10/18 02:03:11;;;;;;;;;;;;;;;10.12;75.07;102555.22;5029599;28;19991;-90
2022/10/18 02:05:43;;;;;;;;;;;;;;;10.16;75.08;102550.50;5021218;28;19926;-88
2022/10/18 02:08:21;;;;;;;;;;;;;;;10.04;75.35;102552.22;5040642;28;19916;-89
2022/10/18 02:10:50;;;;;;;;;;;;;;;10.08;75.30;102548.34;5015757;28;19926;-90
2022/10/18 02:13:18;;;;;;;;;;;;;;;10.03;75.35;102544.28;5032380;28;19921;-88
2022/10/18 02:15:45;;;;;;;;;;;;;;;10.06;75.38;102544.06;5039456;28;20012;-87
2022/10/18 02:18:13;;;;;;;;;;;;;;;10.01;75.45;102548.91;5043277;28;19943;-87
2022/10/18 02:20:38;;;;;;;;;;;;;;;10.01;75.59;102544.38;5023717;28;19941;-87
2022/10/18 02:23:06;;;;;;;;;;;;;;;10.00;75.58;102544.50;5029897;28;20132;-87
2022/10/18 02:25:33;;;;;;;;;;;;;;;10.05;75.51;102551.25;5039413;28;19921;-88
2022/10/18 02:28:02;;;;;;;;;;;;;;;10.00;75.66;102549.88;5033371;28;19930;-87
2022/10/18 02:30:38;;;;;;;;;;;;;;;9.96;75.80;102545.69;5021391;28;19932;-87
2022/10/18 02:33:23;;;;;;;;;;;;;;;9.88;75.99;102541.75;5034160;28;20326;-89
2022/10/18 02:35:50;;;;;;;;;;;;;;;9.81;76.17;102545.84;5020586;28;19970;-86
2022/10/18 02:38:16;;;;;;;;;;;;;;;9.77;76.38;102546.16;5037814;28;19954;-88
2022/10/18 02:40:41;;;;;;;;;;;;;;;9.78;76.37;102542.50;5032680;28;20025;-87
2022/10/18 02:43:07;;;;;;;;;;;;;;;9.64;77.07;102540.78;5034033;28;19956;-86
2022/10/18 02:45:33;;;;;;;;;;;;;;;9.70;76.97;102537.69;5039855;28;20413;-87
2022/10/18 02:47:59;;;;;;;;;;;;;;;9.72;76.91;102541.13;5028198;28;20060;-88
2022/10/18 02:50:25;;;;;;;;;;;;;;;9.67;76.90;102533.38;5026555;28;20373;-87
2022/10/18 02:52:54;;;;;;;;;;;;;;;9.65;77.11;102534.47;5034358;28;19932;-87
2022/10/18 02:55:21;;;;;;;;;;;;;;;9.69;76.90;102533.25;5012664;28;20325;-87
2022/10/18 02:57:46;;;;;;;;;;;;;;;9.69;76.97;102536.81;5026039;28;19929;-87
2022/10/18 03:00:14;;;;;;;;;;;;;;;9.63;77.20;102536.41;5033010;28;19988;-87
2022/10/18 03:02:39;;;;;;;;;;;;;;;9.67;77.38;102537.91;5010125;28;19933;-86
2022/10/18 03:05:06;;;;;;;;;;;;;;;9.69;77.21;102533.25;5028058;28;19921;-87
2022/10/18 03:07:33;;;;;;;;;;;;;;;9.68;77.35;102531.56;5029202;28;20358;-88
2022/10/18 03:09:58;;;;;;;;;;;;;;;9.65;77.38;102527.25;5029273;28;19928;-87
2022/10/18 03:12:24;;;;;;;;;;;;;;;9.63;77.83;102537.25;5035388;28;19925;-86
2022/10/18 03:14:50;;;;;;;;;;;;;;;9.54;78.00;102537.06;5028560;28;19981;-88
2022/10/18 03:17:15;;;;;;;;;;;;;;;9.56;78.08;102537.81;5028167;28;19917;-88
2022/10/18 03:19:42;;;;;;;;;;;;;;;9.62;77.81;102537.34;5027313;28;19928;-87
2022/10/18 03:22:09;;;;;;;;;;;;;;;9.62;78.01;102534.66;5016983;28;20011;-85
2022/10/18 03:24:35;;;;;;;;;;;;;;;9.61;77.83;102533.81;5026629;28;19989;-87
2022/10/18 03:27:02;;;;;;;;;;;;;;;9.62;77.70;102537.34;5031422;28;19921;-88
2022/10/18 03:29:28;;;;;;;;;;;;;;;9.57;77.46;102528.78;5051975;28;20073;-87
2022/10/18 03:32:06;;;;;;;;;;;;;;;9.58;77.45;102528.66;5051658;28;20058;-89
2022/10/18 03:34:33;;;;;;;;;;;;;;;9.48;77.76;102530.28;5033545;28;21677;-88
2022/10/18 03:37:00;;;;;;;;;;;;;;;9.51;77.56;102533.63;5063453;28;20035;-84
2022/10/18 03:39:26;;;;;;;;;;;;;;;9.46;77.91;102529.53;5035693;28;19939;-89
2022/10/18 03:41:59;;;;;;;;;;;;;;;9.45;77.86;102523.28;5014920;28;19969;-89
2022/10/18 03:44:26;;;;;;;;;;;;;;;9.46;77.90;102525.03;5039731;28;20329;-88
2022/10/18 03:46:51;;;;;;;;;;;;;;;9.46;77.88;102524.19;5031574;28;19971;-90
2022/10/18 03:49:20;;;;;;;;;;;;;;;9.44;78.14;102524.28;5035796;28;19921;-87
2022/10/18 03:51:48;;;;;;;;;;;;;;;9.46;78.16;102527.72;5047020;28;19921;-89
2022/10/18 03:54:14;;;;;;;;;;;;;;;9.43;78.30;102517.16;5033158;28;20007;-88
2022/10/18 03:56:40;;;;;;;;;;;;;;;9.41;78.55;102527.19;5049706;28;20090;-87
2022/10/18 03:59:05;;;;;;;;;;;;;;;9.41;78.38;102521.81;5055891;28;19917;-85
2022/10/18 04:01:31;;;;;;;;;;;;;;;9.43;78.69;102525.22;5035335;28;19925;-85
2022/10/18 04:03:59;;;;;;;;;;;;;;;9.42;78.58;102512.78;5035323;28;19921;-87
2022/10/18 04:06:25;;;;;;;;;;;;;;;9.51;78.50;102520.19;5040923;28;19982;-86
2022/10/18 04:08:50;;;;;;;;;;;;;;;9.47;78.66;102529.41;5018246;28;20959;-86
2022/10/18 04:11:16;;;;;;;;;;;;;;;9.50;78.93;102529.22;5025294;28;20371;-85
2022/10/18 04:13:41;;;;;;;;;;;;;;;9.52;79.15;102521.88;5033098;28;20403;-86
2022/10/18 04:16:10;;;;;;;;;;;;;;;9.61;78.92;102528.44;5028756;28;20401;-86
2022/10/18 04:18:36;;;;;;;;;;;;;;;9.66;78.84;102523.59;5037737;28;20469;-84
2022/10/18 04:21:01;;;;;;;;;;;;;;;9.72;78.47;102528.53;5019224;28;20066;-87
2022/10/18 04:23:26;;;;;;;;;;;;;;;9.76;78.20;102529.16;5022386;28;19925;-82
2022/10/18 04:25:52;;;;;;;;;;;;;;;9.75;78.14;102521.25;5026207;28;19944;-85
2022/10/18 04:28:20;;;;;;;;;;;;;;;9.72;78.25;102525.84;5023190;28;19941;-85
2022/10/18 04:30:52;;;;;;;;;;;;;;;9.68;78.24;102518.13;5027645;28;19925;-83
2022/10/18 04:33:19;;;;;;;;;;;;;;;9.62;78.51;102521.25;5036591;28;19932;-86
2022/10/18 04:35:46;;;;;;;;;;;;;;;9.65;78.49;102518.34;5027261;28;19980;-83
2022/10/18 04:38:13;;;;;;;;;;;;;;;9.71;78.38;102523.28;5029874;28;20080;-85
2022/10/18 04:40:38;;;;;;;;;;;;;;;9.66;78.48;102520.06;5026201;28;19951;-83
2022/10/18 04:43:04;;;;;;;;;;;;;;;9.68;78.70;102518.13;5034762;28;19944;-85
2022/10/18 04:45:30;;;;;;;;;;;;;;;9.70;78.84;102517.03;5025393;28;20354;-86
2022/10/18 04:47:55;;;;;;;;;;;;;;;9.76;78.97;102525.63;5035665;28;19979;-86
2022/10/18 04:50:24;;;;;;;;;;;;;;;9.86;78.96;102522.19;5034996;28;19937;-88
2022/10/18 04:52:49;;;;;;;;;;;;;;;9.87;79.11;102518.50;5044085;28;19925;-87
2022/10/18 04:55:15;;;;;;;;;;;;;;;9.95;78.67;102523.34;5031513;28;19921;-88
2022/10/18 04:57:43;;;;;;;;;;;;;;;10.03;78.43;102512.88;5037629;28;19932;-86
2022/10/18 05:00:10;;;;;;;;;;;;;;;10.09;78.21;102511.56;5033248;28;19989;-87
2022/10/18 05:02:36;;;;;;;;;;;;;;;10.09;78.30;102515.13;5025863;28;19974;-86
2022/10/18 05:05:02;;;;;;;;;;;;;;;10.21;77.96;102525.94;5023012;28;20011;-84
2022/10/18 05:07:28;;;;;;;;;;;;;;;10.25;77.83;102517.53;5023255;28;19921;-88
2022/10/18 05:09:53;;;;;;;;;;;;;;;10.26;77.77;102515.72;5024668;28;19921;-87
2022/10/18 05:12:18;;;;;;;;;;;;;;;10.32;77.79;102518.84;5028880;28;20008;-85
2022/10/18 05:14:44;;;;;;;;;;;;;;;10.35;78.01;102518.63;5027372;28;20407;-85
2022/10/18 05:17:09;;;;;;;;;;;;;;;10.25;77.94;102522.91;5032915;28;19927;-83
2022/10/18 05:19:36;;;;;;;;;;;;;;;10.25;78.15;102517.53;5031204;28;19925;-85
2022/10/18 05:22:02;;;;;;;;;;;;;;;10.41;77.32;102527.19;5031689;28;19925;-82
2022/10/18 05:24:27;;;;;;;;;;;;;;;10.51;77.08;102514.75;5012702;28;20431;-83
2022/10/18 05:26:55;;;;;;;;;;;;;;;10.67;76.55;102517.16;5029166;28;20006;-85
2022/10/18 05:29:20;;;;;;;;;;;;;;;10.91;76.01;102523.38;5033360;28;20258;-82
2022/10/18 05:31:47;;;;;;;;;;;;;;;11.01;75.79;102510.06;5018958;28;19978;-83
2022/10/18 05:34:13;;;;;;;;;;;;;;;11.14;75.43;102512.63;5040241;28;19964;-85
2022/10/18 05:36:38;;;;;;;;;;;;;;;11.25;74.80;102514.50;5027484;28;20407;-84
2022/10/18 05:39:04;;;;;;;;;;;;;;;12.32;72.55;102513.97;5029291;28;20011;-85
2022/10/18 05:41:30;;;;;;;;;;;;;;;14.81;65.08;102502.03;5032381;28;19967;-86
2022/10/18 05:43:56;;;;;;;;;;;;;;;16.74;58.83;102506.66;5002794;28;19980;-84
2022/10/18 05:46:22;;;;;;;;;;;;;;;18.43;52.42;102507.94;5030805;28;19921;-85
2022/10/18 05:48:50;;;;;;;;;;;;;;;19.78;48.05;102498.22;5038393;28;20069;-85
2022/10/18 05:51:16;;;;;;;;;;;;;;;21.25;44.80;102497.16;5026101;28;20364;-83
2022/10/18 05:53:41;;;;;;;;;;;;;;;22.64;40.58;102507.31;5036899;28;20019;-84
2022/10/18 05:56:07;;;;;;;;;;;;;;;23.98;38.95;102505.31;5037031;28;19948;-86
2022/10/18 05:58:32;;;;;;;;;;;;;;;24.62;36.15;102506.75;5037447;28;20297;-85
2022/10/18 06:01:01;;;;;;;;;;;;;;;25.18;35.05;102494.50;5027970;28;19922;-86
2022/10/18 06:03:29;;;;;;;;;;;;;;;26.04;33.52;102507.16;5038570;28;19994;-83
2022/10/18 06:06:11;;;;;;;;;;;;;;;26.98;31.46;102501.03;5025498;28;20456;-85
2022/10/18 06:08:37;;;;;;;;;;;;;;;27.63;30.58;102495.03;5033686;28;19928;-86
2022/10/18 06:11:06;;;;;;;;;;;;;;;28.13;29.22;102495.69;5025638;28;19941;-83
2022/10/18 06:13:32;;;;;;;;;;;;;;;28.52;29.02;102507.28;5030473;28;19972;-86
2022/10/18 06:15:57;;;;;;;;;;;;;;;29.03;28.18;102505.78;5017630;28;19968;-84
2022/10/18 06:18:32;;;;;;;;;;;;;;;29.50;27.72;102501.28;5034613;28;20333;-89
2022/10/18 06:20:59;;;;;;;;;;;;;;;29.95;26.85;102507.00;5016969;28;19921;-83
2022/10/18 06:23:28;;;;;;;;;;;;;;;30.25;26.31;102500.31;5030150;28;19983;-85
2022/10/18 06:25:56;;;;;;;;;;;;;;;30.56;25.97;102506.47;5000784;28;19944;-84
2022/10/18 06:28:22;;;;;;;;;;;;;;;31.13;25.36;102503.53;5032724;28;19944;-84
2022/10/18 06:30:47;;;;;;;;;;;;;;;31.15;25.22;102498.56;5026956;28;19921;-86
2022/10/18 06:33:14;;;;;;;;;;;;;;;31.79;24.68;102499.97;5035192;28;20016;-83
2022/10/18 06:35:41;;;;;;;;;;;;;;;32.67;23.49;102502.63;5027962;28;19925;-84
2022/10/18 06:38:06;;;;;;;;;;;;;;;33.03;22.71;102502.88;5022414;28;20373;-84
2022/10/18 06:40:36;;;;;;;;;;;;;;;32.96;23.08;102501.13;5027564;28;19956;-84
2022/10/18 06:43:08;;;;;;;;;;;;;;;33.73;22.02;102498.00;5032863;28;20035;-85
2022/10/18 06:45:33;;;;;;;;;;;;;;;34.15;21.50;102497.03;5036495;28;19917;-86
2022/10/18 06:47:59;;;;;;;;;;;;;;;34.55;20.80;102487.81;5034097;28;19978;-85
2022/10/18 06:50:24;;;;;;;;;;;;;;;32.28;23.08;102481.34;5028908;28;20396;-87
2022/10/18 06:52:53;;;;;;;;;;;;;;;30.29;25.83;102490.47;5036532;28;19920;-90
2022/10/18 06:55:19;;;;;;;;;;;;;;;29.66;26.59;102481.13;5033616;28;20048;-86
2022/10/18 06:57:45;;;;;;;;;;;;;;;31.10;25.39;102491.00;5037058;28;20346;-84
2022/10/18 07:00:11;;;;;;;;;;;;;;;30.49;25.76;102485.28;5035519;28;19921;-87
2022/10/18 07:02:40;;;;;;;;;;;;;;;28.12;29.57;102482.09;5011952;28;19978;-87
2022/10/18 07:05:10;;;;;;;;;;;;;;;26.80;31.67;102479.72;5028792;28;19924;-86
2022/10/18 07:07:35;;;;;;;;;;;;;;;25.64;33.78;102476.16;5022149;28;19931;-88
2022/10/18 07:10:02;;;;;;;;;;;;;;;25.02;34.72;102481.97;5030398;28;19999;-86
2022/10/18 07:12:28;;;;;;;;;;;;;;;24.94;35.67;102482.22;5023809;28;20007;-84
2022/10/18 07:14:54;;;;;;;;;;;;;;;25.11;35.68;102479.03;5021884;28;20037;-87
2022/10/18 07:17:20;;;;;;;;;;;;;;;27.65;31.58;102479.06;5028189;28;19921;-85
2022/10/18 07:19:46;;;;;;;;;;;;;;;28.59;30.08;102485.88;5021345;28;20409;-82
2022/10/18 07:22:11;;;;;;;;;;;;;;;27.03;32.20;102476.34;5028196;28;19947;-86
2022/10/18 07:24:36;;;;;;;;;;;;;;;25.96;33.83;102476.25;5023017;28;19935;-82
2022/10/18 07:27:02;;;;;;;;;;;;;;;25.66;34.37;102474.00;5039445;28;20380;-83
2022/10/18 07:29:30;;;;;;;;;;;;;;;25.40;34.92;102470.31;5047924;28;20055;-82
2022/10/18 07:31:55;;;;;;;;;;;;;;;25.30;35.26;102474.56;5048689;28;19928;-85
2022/10/18 07:34:22;;;;;;;;;;;;;;;24.68;36.73;102469.31;5027501;28;19924;-86
2022/10/18 07:36:48;;;;;;;;;;;;;;;24.95;36.57;102469.31;5032939;28;19916;-86
2022/10/18 07:39:14;;;;;;;;;;;;;;;25.51;35.70;102465.19;5037803;28;19983;-86
2022/10/18 07:41:41;;;;;;;;;;;;;;;26.99;32.75;102464.06;5029698;28;19996;-85
2022/10/18 07:44:08;;;;;;;;;;;;;;;26.69;32.41;102451.81;5043404;28;20239;-84
2022/10/18 07:46:34;;;;;;;;;;;;;;;27.23;31.66;102462.34;5050897;28;19916;-85
2022/10/18 07:48:59;;;;;;;;;;;;;;;27.65;31.84;102459.72;5027723;28;19935;-85
2022/10/18 07:51:25;;;;;;;;;;;;;;;28.37;30.19;102452.34;5002951;28;20013;-85
2022/10/18 07:53:50;;;;;;;;;;;;;;;28.68;29.14;102447.63;5018933;28;20422;-84
2022/10/18 07:56:19;;;;;;;;;;;;;;;27.11;30.23;102452.06;5017078;28;20019;-85
2022/10/18 07:58:46;;;;;;;;;;;;;;;27.21;30.21;102459.00;5033633;28;19925;-84
2022/10/18 08:01:11;;;;;;;;;;;;;;;25.81;30.97;102463.59;5030836;28;19933;-86
2022/10/18 08:03:37;;;;;;;;;;;;;;;25.52;31.81;102459.47;5027702;28;20055;-84
2022/10/18 08:06:04;;;;;;;;;;;;;;;25.06;32.52;102458.50;5030310;28;19920;-84
2022/10/18 08:08:30;;;;;;;;;;;;;;;25.09;33.05;102445.38;5062942;28;19959;-84
2022/10/18 08:11:00;;;;;;;;;;;;;;;25.58;32.43;102446.75;5028607;28;20269;-87
2022/10/18 08:13:25;;;;;;;;;;;;;;;25.59;32.63;102453.91;5026062;28;19932;-85
2022/10/18 08:15:55;;;;;;;;;;;;;;;24.98;33.03;102444.97;5031820;28;19917;-88
2022/10/18 08:18:20;;;;;;;;;;;;;;;23.78;35.01;102450.28;5027718;28;20022;-86
2022/10/18 08:20:45;;;;;;;;;;;;;;;24.22;34.63;102448.94;5011224;28;19933;-89
2022/10/18 08:23:11;;;;;;;;;;;;;;;23.86;35.51;102440.19;5012783;28;19929;-86
2022/10/18 08:25:39;;;;;;;;;;;;;;;23.38;36.52;102439.09;4998049;28;20011;-85
2022/10/18 08:28:04;;;;;;;;;;;;;;;23.94;35.75;102431.75;5010697;28;19933;-86
2022/10/18 08:30:30;;;;;;;;;;;;;;;24.92;33.93;102433.97;5027134;28;19921;-86
2022/10/18 08:32:56;;;;;;;;;;;;;;;24.30;35.06;102433.31;5014463;28;19929;-87
2022/10/18 08:35:24;;;;;;;;;;;;;;;23.64;36.71;102432.03;5021706;28;19983;-85
2022/10/18 08:37:51;;;;;;;;;;;;;;;23.24;37.32;102431.84;5006285;28;19924;-88
2022/10/18 08:40:17;;;;;;;;;;;;;;;23.22;36.97;102428.47;5030391;28;19921;-86
2022/10/18 08:42:42;;;;;;;;;;;;;;;23.36;37.15;102419.25;5028883;28;19928;-87
2022/10/18 08:45:10;;;;;;;;;;;;;;;23.52;37.21;102417.22;5023300;28;20019;-89
2022/10/18 08:47:45;;;;;;;;;;;;;;;24.56;35.68;102416.88;5027120;28;19973;-90
2022/10/18 08:50:18;;;;;;;;;;;;;;;24.70;34.83;102412.22;5030672;28;20314;-85
2022/10/18 08:53:00;;;;;;;;;;;;;;;24.97;34.27;102410.25;5005779;28;21884;-91
2022/10/18 08:55:42;;;;;;;;;;;;;;;26.36;32.14;102407.06;5005563;28;19929;-89
2022/10/18 08:58:17;;;;;;;;;;;;;;;25.58;32.24;102417.28;5014798;28;19917;-90
2022/10/18 09:00:53;;;;;;;;;;;;;;;25.64;32.41;102408.16;5014614;28;19941;-85
2022/10/18 09:03:23;;;;;;;;;;;;;;;27.31;29.44;102393.03;5002770;28;19928;-86
2022/10/18 09:06:15;;;;;;;;;;;;;;;26.17;30.88;102408.91;4990654;28;20389;-84
2022/10/18 09:08:47;;;;;;;;;;;;;;;27.39;28.77;102387.19;5004376;28;20297;-86
2022/10/18 09:11:36;;;;;;;;;;;;;;;28.01;28.36;102398.06;5008305;28;19933;-86
2022/10/18 09:14:18;;;;;;;;;;;;;;;30.20;25.81;102397.63;5015554;28;19952;-86
2022/10/18 09:17:03;;;;;;;;;;;;;;;29.93;26.06;102402.97;5013445;28;19925;-88
2022/10/18 09:19:45;;;;;;;;;;;;;;;30.88;24.39;102387.34;5011946;28;19925;-87
2022/10/18 09:22:17;;;;;;;;;;;;;;;33.10;21.65;102378.13;5003580;28;19932;-84
2022/10/18 09:24:49;;;;;;;;;;;;;;;32.56;21.38;102379.19;5006258;28;20607;-89
2022/10/18 09:27:15;;;;;;;;;;;;;;;31.01;23.15;102369.50;5006370;28;19925;-87
2022/10/18 09:29:49;;;;;;;;;;;;;;;31.51;22.18;102372.06;5008514;28;20535;-88
2022/10/18 09:32:17;;;;;;;;;;;;;;;31.16;22.71;102366.91;5042022;28;19921;-87
2022/10/18 09:34:49;;;;;;;;;;;;;;;32.11;22.11;102372.97;5023184;28;20341;-88
2022/10/18 09:37:16;;;;;;;;;;;;;;;33.61;20.44;102362.44;5024333;28;19917;-89
2022/10/18 09:39:41;;;;;;;;;;;;;;;33.16;20.23;102363.13;5035456;28;19995;-88
2022/10/18 09:42:07;;;;;;;;;;;;;;;34.23;19.72;102374.50;5024391;28;20365;-88
2022/10/18 09:44:34;;;;;;;;;;;;;;;34.48;19.71;102361.63;5028648;28;19949;-91
2022/10/18 09:47:20;;;;;;;;;;;;;;;35.46;18.45;102357.38;5026988;28;19928;-88
2022/10/18 09:50:25;;;;;;;;;;;;;;;34.74;19.09;102367.19;5033315;28;20299;-89
2022/10/18 09:53:08;;;;;;;;;;;;;;;36.59;17.29;102345.31;5023428;28;20358;-87
2022/10/18 09:55:39;;;;;;;;;;;;;;;37.30;16.57;102353.97;5032519;28;19921;-91
2022/10/18 09:58:06;;;;;;;;;;;;;;;36.57;16.41;102353.13;5032696;28;19991;-89
2022/10/18 10:00:40;;;;;;;;;;;;;;;34.21;18.76;102337.66;5022601;28;20075;-88
2022/10/18 10:03:14;;;;;;;;;;;;;;;32.56;20.18;102343.00;5026402;28;19921;-88
2022/10/18 10:05:45;;;;;;;;;;;;;;;32.83;20.14;102328.97;5027697;28;19921;-89
2022/10/18 10:08:10;;;;;;;;;;;;;;;31.97;21.09;102332.81;5029957;28;19925;-87
2022/10/18 10:10:39;;;;;;;;;;;;;;;31.54;21.66;102323.47;5034679;28;20016;-86
2022/10/18 10:13:16;;;;;;;;;;;;;;;31.47;21.93;102322.84;5016416;28;20353;-86
2022/10/18 10:15:57;;;;;;;;;;;;;;;30.64;23.27;102314.53;5019813;28;20029;-86
2022/10/18 10:18:25;;;;;;;;;;;;;;;31.62;22.51;102309.09;5028761;28;19976;-86
2022/10/18 10:20:50;;;;;;;;;;;;;;;29.82;23.81;102307.69;5029100;28;19921;-87
2022/10/18 10:23:20;;;;;;;;;;;;;;;29.64;24.68;102305.94;5039328;28;19917;-88
2022/10/18 10:25:50;;;;;;;;;;;;;;;30.70;23.19;102300.47;5044044;28;20436;-86
2022/10/18 10:28:18;;;;;;;;;;;;;;;29.97;24.28;102298.78;5052435;28;19924;-86
2022/10/18 10:30:45;;;;;;;;;;;;;;;30.64;22.72;102293.16;5050928;28;19917;-88
2022/10/18 10:33:33;;;;;;;;;;;;;;;30.27;23.52;102290.13;5051181;28;19966;-88
2022/10/18 10:36:00;;;;;;;;;;;;;;;31.18;22.71;102288.88;5025439;28;19969;-87
2022/10/18 10:38:26;;;;;;;;;;;;;;;31.45;22.38;102280.59;5044634;28;19921;-87
2022/10/18 10:40:55;;;;;;;;;;;;;;;31.23;22.72;102283.38;5034288;28;20345;-88
2022/10/18 10:43:33;;;;;;;;;;;;;;;29.54;24.83;102284.44;5036646;28;19970;-87
2022/10/18 10:46:05;;;;;;;;;;;;;;;28.69;26.04;102272.22;5035094;28;19932;-87
2022/10/18 10:48:33;;;;;;;;;;;;;;;28.01;26.63;102265.38;5031123;28;19920;-87
2022/10/18 10:51:00;;;;;;;;;;;;;;;27.73;27.16;102274.31;5024264;28;19925;-88
2022/10/18 10:53:29;;;;;;;;;;;;;;;27.04;28.56;102269.13;5015319;28;19917;-88
2022/10/18 10:55:55;;;;;;;;;;;;;;;26.68;29.23;102268.06;5014849;28;20309;-88
2022/10/18 10:58:20;;;;;;;;;;;;;;;25.52;30.59;102268.63;5042590;28;19928;-86
2022/10/18 11:00:54;;;;;;;;;;;;;;;25.43;31.61;102255.13;5047417;28;20381;-86
2022/10/18 11:03:21;;;;;;;;;;;;;;;25.21;32.27;102259.28;5023964;28;19917;-87
2022/10/18 11:05:48;;;;;;;;;;;;;;;25.86;31.99;102248.03;5030283;28;19924;-86
2022/10/18 11:08:17;;;;;;;;;;;;;;;27.33;29.87;102247.28;5004813;28;19927;-89
2022/10/18 11:10:57;;;;;;;;;;;;;;;29.43;27.56;102246.53;5038950;28;20316;-87
2022/10/18 11:13:30;;;;;;;;;;;;;;;29.76;28.13;102242.16;5043026;28;20318;-88
2022/10/18 11:16:06;;;;;;;;;;;;;;;27.27;32.38;102223.38;5035837;28;19975;-87
2022/10/18 11:18:33;;;;;;;;;;;;;;;25.74;35.73;102239.66;5032672;28;20011;-87
2022/10/18 11:21:10;;;;;;;;;;;;;;;26.99;33.53;102233.06;5030949;28;19921;-87
2022/10/18 11:23:36;;;;;;;;;;;;;;;27.65;32.37;102219.38;5005122;28;19924;-87
2022/10/18 11:26:11;;;;;;;;;;;;;;;28.68;31.30;102217.97;5013521;28;20079;-87
2022/10/18 11:28:55;;;;;;;;;;;;;;;28.73;30.85;102211.66;5036401;28;19921;-86
2022/10/18 11:31:20;;;;;;;;;;;;;;;28.58;30.74;102201.13;5033606;28;19924;-87
2022/10/18 11:34:08;;;;;;;;;;;;;;;29.17;29.97;102200.94;5031731;28;20301;-87
2022/10/18 11:36:51;;;;;;;;;;;;;;;27.68;32.14;102189.38;5032285;28;20293;-87
2022/10/18 11:39:17;;;;;;;;;;;;;;;28.18;30.89;102194.44;5018422;28;19921;-87
2022/10/18 11:41:48;;;;;;;;;;;;;;;27.42;33.18;102187.91;5028874;28;20297;-87
2022/10/18 11:44:29;;;;;;;;;;;;;;;27.76;32.04;102183.47;5018862;28;19990;-87
2022/10/18 11:47:07;;;;;;;;;;;;;;;27.14;32.62;102186.59;5032880;28;19925;-87
2022/10/18 11:49:44;;;;;;;;;;;;;;;25.67;35.19;102192.03;5042293;28;20023;-86
2022/10/18 11:52:29;;;;;;;;;;;;;;;25.02;36.41;102181.25;5028126;28;19917;-87
2022/10/18 11:54:58;;;;;;;;;;;;;;;24.25;38.89;102191.25;5024437;28;20070;-86
2022/10/18 11:57:45;;;;;;;;;;;;;;;23.90;39.74;102177.78;5020463;28;19974;-86
2022/10/18 12:00:27;;;;;;;;;;;;;;;23.86;39.89;102176.53;5018261;28;19925;-86
2022/10/18 12:03:11;;;;;;;;;;;;;;;23.80;40.06;102173.59;5035214;28;19933;-87
2022/10/18 12:05:40;;;;;;;;;;;;;;;23.71;40.17;102179.47;5027818;28;20293;-90
2022/10/18 12:08:10;;;;;;;;;;;;;;;23.33;41.34;102177.34;5032350;28;19924;-88
2022/10/18 12:10:36;;;;;;;;;;;;;;;22.80;42.47;102179.94;5016158;28;19929;-86
2022/10/18 12:13:02;;;;;;;;;;;;;;;22.78;43.24;102171.94;5034767;28;20345;-86
2022/10/18 12:15:28;;;;;;;;;;;;;;;22.71;43.00;102171.03;5034484;28;19947;-86
2022/10/18 12:17:58;;;;;;;;;;;;;;;22.39;43.39;102167.94;5028007;28;20342;-87
2022/10/18 12:20:29;;;;;;;;;;;;;;;22.12;44.11;102159.56;5023240;28;19928;-87
2022/10/18 12:22:58;;;;;;;;;;;;;;;21.97;44.62;102160.72;5037103;28;19921;-90
2022/10/18 12:25:24;;;;;;;;;;;;;;;22.47;43.03;102156.81;5023434;28;20026;-86
2022/10/18 12:28:22;;;;;;;;;;;;;;;22.44;42.82;102151.75;5029716;28;19921;-83
2022/10/18 12:30:58;;;;;;;;;;;;;;;22.73;42.25;102155.22;4968091;28;19926;-84
2022/10/18 12:33:25;;;;;;;;;;;;;;;22.65;42.84;102147.19;4964412;28;19926;-85
2022/10/18 12:36:09;;;;;;;;;;;;;;;22.64;42.58;102137.25;4964421;28;20655;-86
2022/10/18 12:38:36;;;;;;;;;;;;;;;22.64;42.26;102137.25;4984191;28;19922;-87
2022/10/18 12:41:02;;;;;;;;;;;;;;;21.77;43.89;102139.50;5018355;28;19921;-84
2022/10/18 12:43:37;;;;;;;;;;;;;;;21.16;45.14;102131.81;5021322;28;19925;-88
2022/10/18 12:46:03;;;;;;;;;;;;;;;20.75;46.82;102132.44;5020817;28;19948;-88
2022/10/18 12:48:31;;;;;;;;;;;;;;;20.82;47.34;102133.34;5024912;28;19960;-89